Time;durP1;ratioP1;P1;durP2;ratioP2;P2;SDS_P1;SDS_P2;PMS_P1;PMS_P2;Temp;Humidity;BMP_temperature;BMP_pressure;BME280_temperature;BME280_humidity;BME280_pressure;Samples;Min_cycle;Max_cycle;Signal;HPM_P1;HPM_P2
2022/01/22 00:00:32;;;;;;;1.23;0.55;;;23.20;30.20;;;;;;5025708;28;20033;-41
2022/01/22 00:02:58;;;;;;;1.25;0.50;;;23.20;30.20;;;;;;5024130;28;20037;-44
2022/01/22 00:05:24;;;;;;;1.90;0.77;;;23.20;30.20;;;;;;5024573;28;20038;-41
2022/01/22 00:07:50;;;;;;;1.50;0.80;;;23.10;30.20;;;;;;5025054;28;20087;-42
2022/01/22 00:10:22;;;;;;;1.13;0.50;;;23.10;30.20;;;;;;5025795;28;20029;-41
2022/01/22 00:15:29;;;;;;;1.38;0.43;;;23.10;30.20;;;;;;5025871;28;20261;-42
2022/01/22 00:17:56;;;;;;;1.23;0.52;;;23.10;30.20;;;;;;5025430;28;20096;-42
2022/01/22 00:20:26;;;;;;;1.80;0.70;;;23.10;30.20;;;;;;5020773;28;20547;-42
2022/01/22 00:22:52;;;;;;;1.30;0.50;;;23.10;30.20;;;;;;5025182;28;20056;-42
2022/01/22 00:25:20;;;;;;;0.90;0.50;;;23.00;30.20;;;;;;5007234;28;20112;-42
2022/01/22 00:27:49;;;;;;;0.93;0.50;;;23.00;30.20;;;;;;5023866;28;20033;-42
2022/01/22 00:30:21;;;;;;;1.25;0.60;;;23.00;30.20;;;;;;5025656;28;20075;-41
2022/01/22 00:32:47;;;;;;;1.60;0.80;;;23.00;30.20;;;;;;5026096;28;20057;-42
2022/01/22 00:35:13;;;;;;;2.17;0.60;;;23.00;30.30;;;;;;5023168;28;20037;-42
2022/01/22 00:37:43;;;;;;;1.30;0.57;;;23.00;30.30;;;;;;5019238;28;20244;-41
2022/01/22 00:40:10;;;;;;;1.73;0.50;;;23.00;30.30;;;;;;5024886;28;20037;-41
2022/01/22 00:42:41;;;;;;;0.70;0.30;;;22.90;31.00;;;;;;5025450;28;20037;-42
2022/01/22 00:45:07;;;;;;;1.20;0.50;;;22.90;30.40;;;;;;5025104;28;20521;-44
2022/01/22 00:47:33;;;;;;;1.65;0.77;;;23.00;30.30;;;;;;5024828;28;20520;-47
2022/01/22 00:49:58;;;;;;;1.23;0.50;;;22.90;30.30;;;;;;5025306;28;20064;-44
2022/01/22 00:52:24;;;;;;;1.00;0.50;;;22.90;30.30;;;;;;5024290;28;20366;-44
2022/01/22 00:54:50;;;;;;;1.45;0.45;;;22.90;30.30;;;;;;5024973;28;20029;-45
2022/01/22 00:57:16;;;;;;;0.93;0.55;;;22.90;30.30;;;;;;5023093;28;20030;-44
2022/01/22 00:59:42;;;;;;;1.80;0.70;;;22.80;30.20;;;;;;5025583;28;20109;-46
2022/01/22 01:02:08;;;;;;;1.30;0.57;;;22.80;30.20;;;;;;5024192;28;20108;-44
2022/01/22 01:04:35;;;;;;;1.80;0.70;;;22.80;30.20;;;;;;5024981;28;20030;-47
2022/01/22 01:07:02;;;;;;;1.45;0.65;;;22.80;30.20;;;;;;5024620;28;20039;-45
2022/01/22 01:09:27;;;;;;;1.73;0.50;;;22.80;30.20;;;;;;5024295;28;20374;-46
2022/01/22 01:11:58;;;;;;;1.42;0.60;;;22.80;30.20;;;;;;5024106;28;20056;-46
2022/01/22 01:14:34;;;;;;;0.55;0.40;;;22.80;30.20;;;;;;5024171;28;20029;-44
2022/01/22 01:33:24;;;;;;;1.10;0.50;;;22.70;30.30;;;;;;5024922;28;20029;-45
2022/01/22 01:35:49;;;;;;;1.08;0.50;;;22.70;30.30;;;;;;5025181;28;20048;-44
2022/01/22 01:38:19;;;;;;;2.22;1.05;;;22.60;30.20;;;;;;5024370;28;20056;-45
2022/01/22 01:40:52;;;;;;;1.67;0.60;;;22.60;30.30;;;;;;5024390;28;20056;-48
2022/01/22 01:43:24;;;;;;;1.02;0.40;;;22.60;30.20;;;;;;5023816;28;20030;-45
2022/01/22 01:45:50;;;;;;;1.40;0.52;;;22.60;30.20;;;;;;5008450;28;20042;-43
2022/01/22 01:48:21;;;;;;;1.38;0.47;;;22.60;30.20;;;;;;5003447;28;20034;-45
2022/01/22 01:50:47;;;;;;;1.42;0.55;;;22.60;30.20;;;;;;5004995;28;20045;-45
2022/01/22 01:53:30;;;;;;;1.20;0.52;;;22.60;30.20;;;;;;5004255;28;20022;-47
2022/01/22 01:58:24;;;;;;;1.95;0.60;;;22.60;30.20;;;;;;5023369;28;20025;-45
2022/01/22 02:00:50;;;;;;;1.45;0.60;;;22.50;30.20;;;;;;5023827;28;20105;-45
2022/01/22 02:03:16;;;;;;;0.90;0.30;;;22.50;30.20;;;;;;5025233;28;20033;-45
2022/01/22 02:05:42;;;;;;;1.17;0.52;;;22.50;30.20;;;;;;5028493;28;20044;-45
2022/01/22 02:08:09;;;;;;;0.70;0.40;;;22.50;30.20;;;;;;5027718;28;20025;-45
2022/01/22 02:10:42;;;;;;;0.98;0.45;;;22.50;30.30;;;;;;5027522;28;20041;-47
2022/01/22 02:24:07;;;;;;;1.42;0.60;;;22.50;30.30;;;;;;5027853;28;20129;-45
2022/01/22 02:26:33;;;;;;;1.13;0.43;;;22.50;30.20;;;;;;5027837;28;20025;-45
2022/01/22 02:28:59;;;;;;;0.70;0.40;;;22.50;30.30;;;;;;5027800;28;20086;-43
2022/01/22 02:31:38;;;;;;;1.85;0.70;;;22.50;30.30;;;;;;5028323;28;20123;-45
2022/01/22 02:36:55;;;;;;;0.90;0.43;;;22.40;30.20;;;;;;5027656;28;20023;-45
2022/01/22 02:39:33;;;;;;;1.95;0.70;;;22.40;30.20;;;;;;5027247;28;20025;-46
2022/01/22 02:41:58;;;;;;;1.08;0.60;;;22.40;30.20;;;;;;5026420;28;20021;-43
2022/01/22 02:44:35;;;;;;;0.75;0.35;;;22.40;30.20;;;;;;5028128;28;20397;-45
2022/01/22 02:47:04;;;;;;;1.90;0.70;;;22.40;30.20;;;;;;5025732;28;20572;-44
2022/01/22 02:49:30;;;;;;;0.73;0.35;;;22.40;30.20;;;;;;5026681;28;20113;-45
2022/01/22 02:52:07;;;;;;;0.80;0.40;;;22.40;30.20;;;;;;5027424;28;20568;-47
2022/01/22 02:54:33;;;;;;;1.52;0.52;;;22.40;30.20;;;;;;5027470;28;20030;-45
2022/01/22 02:56:59;;;;;;;1.23;0.47;;;22.40;30.20;;;;;;5025428;28;20029;-45
2022/01/22 02:59:25;;;;;;;0.70;0.30;;;22.30;30.20;;;;;;5026906;28;20091;-46
2022/01/22 03:01:52;;;;;;;1.33;0.50;;;22.30;30.30;;;;;;5026532;28;20026;-45
2022/01/22 03:04:18;;;;;;;1.10;0.40;;;22.40;30.20;;;;;;5026708;28;20065;-45
2022/01/22 03:06:44;;;;;;;0.57;0.30;;;22.30;30.20;;;;;;5026702;28;20544;-46
2022/01/22 03:09:12;;;;;;;1.35;0.40;;;22.30;30.30;;;;;;5041890;28;20036;-44
2022/01/22 03:17:22;;;;;;;0.90;0.40;;;22.30;30.30;;;;;;5026611;28;20108;-43
2022/01/22 03:22:17;;;;;;;0.73;0.40;;;22.30;30.30;;;;;;5027026;28;20778;-46
2022/01/22 03:27:29;;;;;;;0.50;0.20;;;22.30;30.30;;;;;;5007043;28;20583;-43
2022/01/22 03:29:56;;;;;;;0.65;0.32;;;22.30;30.30;;;;;;5006684;28;20045;-45
2022/01/22 03:32:23;;;;;;;0.98;0.30;;;22.30;30.30;;;;;;5023245;28;20032;-46
2022/01/22 03:35:10;;;;;;;0.75;0.30;;;22.30;30.30;;;;;;5027027;28;20029;-45
2022/01/22 03:37:37;;;;;;;1.55;0.50;;;22.30;30.30;;;;;;5025655;28;20132;-44
2022/01/22 03:40:04;;;;;;;0.75;0.32;;;22.20;30.80;;;;;;5026378;28;20026;-46
2022/01/22 03:42:30;;;;;;;0.80;0.40;;;22.30;30.30;;;;;;5027198;28;20036;-45
2022/01/22 03:44:56;;;;;;;0.63;0.30;;;22.30;30.30;;;;;;5018329;28;20030;-44
2022/01/22 03:47:22;;;;;;;0.52;0.20;;;22.20;30.20;;;;;;5006448;28;20516;-44
2022/01/22 03:49:47;;;;;;;0.57;0.22;;;22.30;30.30;;;;;;5006673;28;20120;-44
2022/01/22 03:52:13;;;;;;;1.13;0.47;;;22.20;30.20;;;;;;5006792;28;20077;-46
2022/01/22 03:54:39;;;;;;;1.10;0.30;;;22.20;30.20;;;;;;5005581;28;20501;-46
2022/01/22 03:57:07;;;;;;;0.63;0.22;;;22.20;30.20;;;;;;5023184;28;20225;-46
2022/01/22 03:59:33;;;;;;;0.77;0.30;;;22.20;30.20;;;;;;5025694;28;20021;-44
2022/01/22 04:04:42;;;;;;;0.68;0.30;;;22.20;30.20;;;;;;5025343;28;20022;-44
2022/01/22 04:09:37;;;;;;;0.50;0.38;;;22.20;30.20;;;;;;5024258;28;20044;-44
2022/01/22 04:12:03;;;;;;;0.80;0.30;;;22.20;30.20;;;;;;5025974;28;20121;-43
2022/01/22 04:14:33;;;;;;;0.90;0.30;;;22.10;30.20;;;;;;5025594;28;20100;-47
2022/01/22 04:25:11;;;;;;;0.57;0.20;;;22.10;30.10;;;;;;5024359;28;20496;-44
2022/01/22 04:27:36;;;;;;;0.40;0.22;;;22.10;30.10;;;;;;5024860;28;20408;-47
2022/01/22 04:30:03;;;;;;;0.65;0.30;;;22.10;30.10;;;;;;5025274;28;20057;-45
2022/01/22 04:32:31;;;;;;;0.85;0.47;;;22.10;30.20;;;;;;5025094;28;20029;-47
2022/01/22 04:34:57;;;;;;;0.70;0.30;;;22.00;30.20;;;;;;5025147;28;20044;-45
2022/01/22 04:37:24;;;;;;;0.20;0.20;;;22.10;30.10;;;;;;5024677;28;20079;-44
2022/01/22 04:39:50;;;;;;;0.45;0.28;;;22.10;30.20;;;;;;5025861;28;20048;-45
2022/01/22 04:42:17;;;;;;;0.40;0.30;;;22.10;30.20;;;;;;5040538;28;20112;-44
2022/01/22 04:44:54;;;;;;;1.30;0.43;;;22.10;30.10;;;;;;5025469;28;20029;-45
2022/01/22 04:47:42;;;;;;;0.40;0.20;;;22.00;30.10;;;;;;5025322;28;20031;-44
2022/01/22 04:55:26;;;;;;;0.55;0.30;;;22.00;30.10;;;;;;5024191;28;20030;-43
2022/01/22 04:57:52;;;;;;;0.43;0.20;;;22.00;30.10;;;;;;5023314;28;20038;-45
2022/01/22 05:00:18;;;;;;;0.77;0.20;;;22.00;30.00;;;;;;5024038;28;20029;-46
2022/01/22 05:02:43;;;;;;;1.38;0.30;;;22.00;30.00;;;;;;5020392;28;20501;-46
2022/01/22 05:05:10;;;;;;;0.52;0.20;;;22.00;30.00;;;;;;5004727;28;20037;-44
2022/01/22 05:07:35;;;;;;;0.75;0.40;;;22.00;30.00;;;;;;5004837;28;20037;-45
2022/01/22 05:10:02;;;;;;;1.17;0.30;;;22.00;30.10;;;;;;5004864;28;20038;-45
2022/01/22 05:12:28;;;;;;;0.63;0.20;;;22.00;30.00;;;;;;5024797;28;20500;-44
2022/01/22 05:14:54;;;;;;;1.35;0.38;;;21.90;30.10;;;;;;5024894;28;20025;-46
2022/01/22 05:17:20;;;;;;;1.00;0.40;;;21.90;30.00;;;;;;5024248;28;20029;-46
2022/01/22 05:19:53;;;;;;;0.45;0.20;;;21.90;30.10;;;;;;5024558;28;20166;-44
2022/01/22 05:24:55;;;;;;;0.30;0.10;;;21.90;30.00;;;;;;5025037;28;20508;-48
2022/01/22 05:30:12;;;;;;;0.40;0.20;;;21.90;30.10;;;;;;5024761;28;20117;-45
2022/01/22 05:38:01;;;;;;;0.70;0.30;;;21.80;30.00;;;;;;5023913;28;20155;-44
2022/01/22 05:40:28;;;;;;;0.40;0.20;;;21.80;30.00;;;;;;5024013;28;20105;-47
2022/01/22 05:42:54;;;;;;;0.57;0.20;;;21.80;30.00;;;;;;5024007;28;20068;-44
2022/01/22 05:45:20;;;;;;;2.00;0.47;;;21.80;30.00;;;;;;5014405;28;20560;-44
2022/01/22 05:47:45;;;;;;;0.90;0.30;;;21.80;30.00;;;;;;5003860;28;20034;-47
2022/01/22 05:50:25;;;;;;;0.47;0.20;;;21.80;30.00;;;;;;5004655;28;20104;-44
2022/01/22 05:53:01;;;;;;;1.10;0.30;;;21.80;30.00;;;;;;5004818;28;20034;-46
2022/01/22 05:59:35;;;;;;;0.95;0.32;;;21.80;30.00;;;;;;5006548;28;20484;-46
2022/01/22 06:01:14;;;;;;;0.50;0.10;;;21.80;30.00;;;;;;5023690;28;20024;-45
2022/01/22 06:03:40;;;;;;;0.40;0.20;;;21.70;30.00;;;;;;5024240;28;20034;-45
2022/01/22 06:06:06;;;;;;;0.20;0.10;;;21.70;30.00;;;;;;5039507;28;20061;-44
2022/01/22 06:08:40;;;;;;;0.47;0.20;;;21.70;30.00;;;;;;5024094;28;20061;-44
2022/01/22 06:11:10;;;;;;;0.63;0.30;;;21.70;30.00;;;;;;5024148;28;20053;-45
2022/01/22 06:13:46;;;;;;;0.52;0.20;;;21.70;30.10;;;;;;5017511;28;20053;-45
2022/01/22 06:16:14;;;;;;;0.38;0.20;;;21.70;30.40;;;;;;5012295;28;20054;-44
2022/01/22 06:18:40;;;;;;;0.93;0.38;;;21.70;30.20;;;;;;5009420;28;20030;-45
2022/01/22 06:21:09;;;;;;;0.80;0.30;;;21.70;30.30;;;;;;5013344;28;20030;-45
2022/01/22 06:23:35;;;;;;;0.30;0.10;;;21.70;30.30;;;;;;5004103;28;20026;-44
2022/01/22 06:26:01;;;;;;;1.27;0.15;;;21.70;30.40;;;;;;5010525;28;20071;-49
2022/01/22 06:28:28;;;;;;;0.75;0.20;;;21.70;30.40;;;;;;5023528;28;20524;-43
2022/01/22 06:30:53;;;;;;;0.55;0.20;;;21.70;30.60;;;;;;5023980;28;20246;-44
2022/01/22 06:33:19;;;;;;;1.55;0.10;;;21.80;30.60;;;;;;5022192;28;20026;-44
2022/01/22 06:35:45;;;;;;;0.63;0.20;;;21.80;30.60;;;;;;5022488;28;20020;-47
2022/01/22 06:38:10;;;;;;;0.50;0.20;;;21.80;30.60;;;;;;5023181;28;20545;-45
2022/01/22 06:43:04;;;;;;;0.25;0.20;;;21.90;30.70;;;;;;5022525;28;20064;-46
2022/01/22 06:45:30;;;;;;;1.10;0.10;;;22.00;30.70;;;;;;5022573;28;20060;-44
2022/01/22 06:47:56;;;;;;;1.15;0.15;;;22.00;30.70;;;;;;5022331;28;20067;-43
2022/01/22 06:50:22;;;;;;;1.73;0.30;;;22.10;30.70;;;;;;5025900;28;20029;-46
2022/01/22 06:52:55;;;;;;;1.33;0.20;;;22.10;30.70;;;;;;5027028;28;20108;-44
2022/01/22 06:58:20;;;;;;;0.10;0.10;;;22.30;30.60;;;;;;5026502;28;20037;-46
2022/01/22 07:00:46;;;;;;;0.50;0.25;;;22.30;30.50;;;;;;5025952;28;20045;-46
2022/01/22 07:03:11;;;;;;;1.92;0.20;;;22.40;30.40;;;;;;5024328;28;20025;-45
2022/01/22 07:05:37;;;;;;;0.55;0.10;;;22.50;30.50;;;;;;5023542;28;20036;-44
2022/01/22 07:08:03;;;;;;;0.55;0.30;;;22.60;30.60;;;;;;5023787;28;20022;-46
2022/01/22 07:10:29;;;;;;;0.52;0.20;;;22.60;30.50;;;;;;5025079;28;20083;-45
2022/01/22 07:12:54;;;;;;;1.83;0.20;;;22.70;30.70;;;;;;5024550;28;20087;-47
2022/01/22 07:15:21;;;;;;;1.27;0.30;;;22.80;30.70;;;;;;5025684;28;20051;-44
2022/01/22 07:17:46;;;;;;;2.28;0.30;;;22.80;31.00;;;;;;5024077;28;20025;-45
2022/01/22 07:20:24;;;;;;;1.55;0.30;;;22.90;31.20;;;;;;5025723;28;20033;-46
2022/01/22 07:25:16;;;;;;;1.58;0.40;;;23.10;31.60;;;;;;5023989;28;20065;-43
2022/01/22 07:27:42;;;;;;;0.98;0.28;;;23.20;31.50;;;;;;5024979;28;20437;-45
2022/01/22 07:30:08;;;;;;;0.98;0.20;;;23.20;31.40;;;;;;5025726;28;20029;-44
2022/01/22 07:32:37;;;;;;;1.58;0.40;;;23.30;31.30;;;;;;5026311;28;20037;-45
2022/01/22 07:35:04;;;;;;;1.52;0.20;;;23.30;31.20;;;;;;5025458;28;20033;-46
2022/01/22 07:37:30;;;;;;;2.05;0.75;;;23.40;31.00;;;;;;5025742;28;20082;-45
2022/01/22 07:39:56;;;;;;;2.17;0.50;;;23.50;31.00;;;;;;5040858;28;20517;-44
2022/01/22 07:42:22;;;;;;;1.27;0.20;;;23.50;30.80;;;;;;5025776;28;20033;-45
2022/01/22 07:44:47;;;;;;;0.70;0.30;;;23.60;30.70;;;;;;5026136;28;20025;-46
2022/01/22 07:47:13;;;;;;;1.27;0.30;;;23.70;30.70;;;;;;5024927;28;20076;-45
2022/01/22 07:49:40;;;;;;;1.80;0.40;;;23.80;30.60;;;;;;5025978;28;20033;-45
2022/01/22 07:52:06;;;;;;;0.57;0.22;;;23.80;30.50;;;;;;5025540;28;20417;-44
2022/01/22 07:54:33;;;;;;;0.73;0.20;;;23.90;30.40;;;;;;5025155;28;20033;-47
2022/01/22 07:56:59;;;;;;;0.90;0.20;;;23.90;30.30;;;;;;5023783;28;20033;-45
2022/01/22 07:59:25;;;;;;;0.98;0.30;;;23.90;30.90;;;;;;5013555;28;20030;-44
2022/01/22 08:01:51;;;;;;;2.28;0.30;;;24.00;30.20;;;;;;5022626;28;20025;-46
2022/01/22 08:04:23;;;;;;;1.30;0.45;;;24.10;30.10;;;;;;5024273;28;20033;-45
2022/01/22 08:06:49;;;;;;;0.80;0.25;;;24.10;30.30;;;;;;5022176;28;20017;-45
2022/01/22 08:09:15;;;;;;;1.70;0.30;;;24.20;30.20;;;;;;5024112;28;20033;-45
2022/01/22 08:11:41;;;;;;;2.05;0.32;;;24.20;30.10;;;;;;5024036;28;20026;-47
2022/01/22 08:14:10;;;;;;;2.00;0.28;;;24.30;30.00;;;;;;5022555;28;20083;-46
2022/01/22 08:16:37;;;;;;;1.40;0.38;;;24.30;30.40;;;;;;5023812;28;20643;-45
2022/01/22 08:19:03;;;;;;;1.65;0.38;;;24.40;30.40;;;;;;5020597;28;20060;-44
2022/01/22 08:21:29;;;;;;;3.65;0.57;;;24.40;30.30;;;;;;5023841;28;20377;-45
2022/01/22 08:23:55;;;;;;;2.03;0.30;;;24.50;30.40;;;;;;5024475;28;20026;-45
2022/01/22 08:26:26;;;;;;;1.00;0.25;;;24.50;30.30;;;;;;5022441;28;20534;-47
2022/01/22 08:28:57;;;;;;;1.98;0.55;;;24.60;30.20;;;;;;5024499;28;20147;-46
2022/01/22 08:36:43;;;;;;;1.23;0.40;;;24.70;29.90;;;;;;5023359;28;20028;-45
2022/01/22 08:39:10;;;;;;;0.85;0.28;;;24.80;29.80;;;;;;5024656;28;20037;-45
2022/01/22 08:41:37;;;;;;;3.50;0.43;;;24.80;29.70;;;;;;5023638;28;20140;-44
2022/01/22 08:44:03;;;;;;;1.80;0.30;;;24.90;30.10;;;;;;5024126;28;20061;-44
2022/01/22 08:46:31;;;;;;;0.85;0.30;;;24.90;30.00;;;;;;5024587;28;20059;-43
2022/01/22 08:48:57;;;;;;;1.55;0.40;;;24.90;30.00;;;;;;5024866;28;20057;-44
2022/01/22 08:51:23;;;;;;;1.00;0.50;;;24.90;30.30;;;;;;5025324;28;20028;-44
2022/01/22 08:53:50;;;;;;;1.25;0.40;;;25.00;30.30;;;;;;5024793;28;20037;-47
2022/01/22 08:56:16;;;;;;;2.38;0.45;;;25.00;30.10;;;;;;5019032;28;20739;-45
2022/01/22 08:58:42;;;;;;;3.33;0.40;;;25.00;30.70;;;;;;5024576;28;20037;-47
2022/01/22 09:01:09;;;;;;;2.25;0.40;;;25.00;30.50;;;;;;5023718;28;20094;-47
2022/01/22 09:03:35;;;;;;;0.88;0.30;;;25.10;30.50;;;;;;5025011;28;20036;-45
2022/01/22 09:06:03;;;;;;;1.73;0.35;;;25.10;31.10;;;;;;5024716;28;20029;-44
2022/01/22 09:08:29;;;;;;;1.55;0.45;;;25.10;31.00;;;;;;5023469;28;20029;-45
2022/01/22 09:10:55;;;;;;;1.77;0.30;;;25.10;30.90;;;;;;5024138;28;20055;-45
2022/01/22 09:13:22;;;;;;;0.73;0.30;;;25.20;30.90;;;;;;5024101;28;20449;-44
2022/01/22 09:15:48;;;;;;;2.25;0.30;;;25.20;31.20;;;;;;5015969;28;20559;-44
2022/01/22 09:18:14;;;;;;;1.85;0.25;;;25.20;31.10;;;;;;5014001;28;20166;-43
2022/01/22 09:23:08;;;;;;;4.60;0.60;;;25.30;31.20;;;;;;5023304;28;20107;-45
2022/01/22 09:25:34;;;;;;;4.15;0.60;;;25.30;31.10;;;;;;5021293;28;20033;-46
2022/01/22 09:28:00;;;;;;;1.80;0.40;;;25.30;30.80;;;;;;5021993;28;20033;-45
2022/01/22 09:30:26;;;;;;;3.00;0.40;;;25.30;30.70;;;;;;5022523;28;20409;-45
2022/01/22 09:32:53;;;;;;;1.30;0.22;;;25.30;30.70;;;;;;5023555;28;20036;-42
2022/01/22 09:35:19;;;;;;;2.83;0.45;;;25.30;30.60;;;;;;5038166;28;20029;-43
2022/01/22 09:37:46;;;;;;;2.10;0.50;;;25.30;30.60;;;;;;5009734;28;20022;-41
2022/01/22 09:40:12;;;;;;;1.98;0.40;;;25.30;30.50;;;;;;5003674;28;20041;-42
2022/01/22 09:42:41;;;;;;;1.73;0.40;;;25.30;30.40;;;;;;5020270;28;20029;-41
2022/01/22 09:45:09;;;;;;;2.55;0.50;;;25.30;30.40;;;;;;5023427;28;20041;-41
2022/01/22 09:47:35;;;;;;;1.13;0.40;;;25.30;30.40;;;;;;5021647;28;20032;-42
2022/01/22 09:50:03;;;;;;;2.35;0.43;;;25.20;30.30;;;;;;5023523;28;20036;-42
2022/01/22 09:52:28;;;;;;;1.23;0.32;;;25.30;30.20;;;;;;5022663;28;20017;-41
2022/01/22 09:54:54;;;;;;;1.45;0.40;;;25.30;30.20;;;;;;5023597;28;20029;-42
2022/01/22 09:57:20;;;;;;;1.95;0.40;;;25.30;30.20;;;;;;5021630;28;20029;-42
2022/01/22 09:59:46;;;;;;;1.50;0.45;;;25.30;30.40;;;;;;5021037;28;20029;-42
2022/01/22 10:02:14;;;;;;;0.88;0.40;;;25.30;30.20;;;;;;5022254;28;20021;-41
2022/01/22 10:04:45;;;;;;;0.90;0.30;;;25.30;30.20;;;;;;5022431;28;20123;-41
2022/01/22 10:07:21;;;;;;;1.65;0.30;;;25.30;30.20;;;;;;5022457;28;20429;-42
2022/01/22 10:10:07;;;;;;;1.25;0.50;;;25.40;30.10;;;;;;5021860;28;20030;-42
2022/01/22 10:12:51;;;;;;;1.02;0.40;;;25.40;30.00;;;;;;5022611;28;20166;-42
2022/01/22 10:15:18;;;;;;;3.20;0.40;;;25.40;30.40;;;;;;5020581;28;20634;-42
2022/01/22 10:17:50;;;;;;;1.50;0.40;;;25.40;30.70;;;;;;5023246;28;20026;-42
2022/01/22 10:20:25;;;;;;;36.25;32.78;;;25.40;30.70;;;;;;5022777;28;20041;-42
2022/01/22 10:23:02;;;;;;;77.15;70.75;;;25.40;30.90;;;;;;5022480;28;20033;-42
2022/01/22 10:25:34;;;;;;;74.95;68.82;;;25.40;30.90;;;;;;5026211;28;20112;-42
2022/01/22 10:28:09;;;;;;;68.10;62.45;;;25.40;30.70;;;;;;5025120;28;20537;-41
2022/01/22 10:30:38;;;;;;;57.20;52.55;;;25.40;29.70;;;;;;5027173;28;20080;-42
2022/01/22 10:33:29;;;;;;;57.17;52.50;;;25.40;29.90;;;;;;5027251;28;20029;-42
2022/01/22 10:36:16;;;;;;;51.22;46.88;;;25.40;30.00;;;;;;5041816;28;20033;-41
2022/01/22 10:38:44;;;;;;;49.53;45.47;;;25.50;30.20;;;;;;5026913;28;20025;-42
2022/01/22 10:41:11;;;;;;;50.00;45.75;;;25.50;30.30;;;;;;5026284;28;20029;-42
2022/01/22 10:43:43;;;;;;;47.13;43.38;;;25.50;30.40;;;;;;5026810;28;20719;-42
2022/01/22 10:46:33;;;;;;;42.35;38.78;;;25.50;30.50;;;;;;5026277;28;20079;-42
2022/01/22 10:49:04;;;;;;;37.20;33.97;;;25.60;30.60;;;;;;5026905;28;20034;-42
2022/01/22 10:51:31;;;;;;;31.67;28.98;;;25.60;30.50;;;;;;5026923;28;20036;-41
2022/01/22 10:54:02;;;;;;;29.13;26.63;;;25.60;30.30;;;;;;5026183;28;20084;-42
2022/01/22 10:56:30;;;;;;;25.85;23.60;;;25.60;30.50;;;;;;5025885;28;20521;-42
2022/01/22 10:59:02;;;;;;;23.17;21.13;;;25.70;30.70;;;;;;5026113;28;20116;-42
2022/01/22 11:01:31;;;;;;;20.35;18.52;;;25.70;30.90;;;;;;5025519;28;20064;-42
2022/01/22 11:04:11;;;;;;;18.15;16.50;;;25.70;31.20;;;;;;5041275;28;20057;-42
2022/01/22 11:06:39;;;;;;;17.88;16.15;;;25.80;31.30;;;;;;5025935;28;20032;-42
2022/01/22 11:09:07;;;;;;;16.92;14.60;;;25.80;31.40;;;;;;5022596;28;20029;-42
2022/01/22 11:11:38;;;;;;;16.33;14.73;;;25.80;31.40;;;;;;5016856;28;20030;-41
2022/01/22 11:14:07;;;;;;;14.57;12.82;;;25.80;31.30;;;;;;5019814;28;20068;-42
2022/01/22 11:16:36;;;;;;;12.95;11.50;;;25.90;30.90;;;;;;5021780;28;20041;-41
2022/01/22 11:19:03;;;;;;;12.63;11.32;;;25.80;30.80;;;;;;5019808;28;20076;-42
2022/01/22 11:21:31;;;;;;;12.32;10.45;;;25.90;30.50;;;;;;5018294;28;20021;-42
2022/01/22 11:23:58;;;;;;;10.40;9.32;;;25.90;30.50;;;;;;5015669;28;20030;-42
2022/01/22 11:26:24;;;;;;;13.48;10.50;;;25.90;30.50;;;;;;5016519;28;20045;-42
2022/01/22 11:28:52;;;;;;;10.70;9.15;;;25.90;30.60;;;;;;5025995;28;20252;-41
2022/01/22 11:31:19;;;;;;;10.70;9.10;;;25.90;30.70;;;;;;5026117;28;20040;-42
2022/01/22 11:33:48;;;;;;;8.68;7.78;;;25.90;31.10;;;;;;5023061;28;20721;-42
2022/01/22 11:36:41;;;;;;;8.00;7.18;;;25.90;31.10;;;;;;5022217;28;20017;-41
2022/01/22 11:39:13;;;;;;;7.80;7.00;;;26.00;31.40;;;;;;5023185;28;20033;-42
2022/01/22 11:41:52;;;;;;;6.32;5.70;;;26.00;31.50;;;;;;5026203;28;20489;-42
2022/01/22 11:44:25;;;;;;;7.72;6.50;;;26.00;31.30;;;;;;5025810;28;20046;-42
2022/01/22 11:47:05;;;;;;;7.28;6.07;;;26.00;31.20;;;;;;5025690;28;20030;-42
2022/01/22 11:49:32;;;;;;;7.13;6.35;;;26.00;31.10;;;;;;5025140;28;20021;-42
2022/01/22 11:52:13;;;;;;;6.88;6.07;;;26.00;31.20;;;;;;5026009;28;20057;-43
2022/01/22 11:55:01;;;;;;;7.18;5.78;;;26.00;31.30;;;;;;5025105;28;20803;-42
2022/01/22 11:57:47;;;;;;;6.55;4.40;;;26.10;31.30;;;;;;5025402;28;20037;-42
2022/01/22 12:00:24;;;;;;;5.65;4.95;;;26.00;31.30;;;;;;5022541;28;20038;-42
2022/01/22 12:03:07;;;;;;;6.00;4.63;;;26.00;31.10;;;;;;5005631;28;20590;-42
2022/01/22 12:05:54;;;;;;;4.82;4.22;;;26.00;31.10;;;;;;5009068;28;20018;-43
2022/01/22 12:08:21;;;;;;;4.85;4.07;;;26.00;31.10;;;;;;5022467;28;20021;-42
2022/01/22 12:16:40;;;;;;;5.53;4.18;;;26.00;30.90;;;;;;5025044;28;20094;-42
2022/01/22 12:22:33;;;;;;;6.50;3.55;;;25.90;30.30;;;;;;5017317;28;20056;-42
2022/01/22 12:25:09;;;;;;;6.30;3.50;;;25.90;30.30;;;;;;5025395;28;20029;-42
2022/01/22 12:27:52;;;;;;;4.93;3.28;;;26.00;30.70;;;;;;5025055;28;20446;-42
2022/01/22 12:30:39;;;;;;;5.53;3.38;;;25.90;30.20;;;;;;5025214;28;20037;-42
2022/01/22 12:33:09;;;;;;;4.13;2.85;;;25.90;30.30;;;;;;5023170;28;20040;-42
2022/01/22 12:35:48;;;;;;;4.45;2.90;;;25.90;30.20;;;;;;5025256;28;20021;-41
2022/01/22 12:38:21;;;;;;;4.80;3.17;;;25.90;30.20;;;;;;5022991;28;20111;-42
2022/01/22 12:40:51;;;;;;;6.80;3.50;;;25.90;30.20;;;;;;5025578;28;20025;-42
2022/01/22 12:43:26;;;;;;;4.35;3.00;;;25.90;30.10;;;;;;5023506;28;20124;-42
2022/01/22 12:45:58;;;;;;;4.75;2.58;;;25.90;30.10;;;;;;5024276;28;20021;-41
2022/01/22 12:48:27;;;;;;;4.82;2.85;;;25.80;30.10;;;;;;5023798;28;20042;-43
2022/01/22 12:50:58;;;;;;;4.85;2.58;;;25.80;30.00;;;;;;5024593;28;20441;-42
2022/01/22 12:53:24;;;;;;;4.03;2.58;;;25.80;30.10;;;;;;5024507;28;20098;-42
2022/01/22 12:58:21;;;;;;;4.07;2.38;;;25.80;30.10;;;;;;5023170;28;20036;-42
2022/01/22 13:00:47;;;;;;;5.25;2.72;;;25.80;30.10;;;;;;5024728;28;20025;-42
2022/01/22 13:03:13;;;;;;;4.05;2.95;;;25.70;30.10;;;;;;5024352;28;20025;-42
2022/01/22 13:05:45;;;;;;;4.80;2.35;;;25.70;30.30;;;;;;5023417;28;20040;-41
2022/01/22 13:08:11;;;;;;;3.22;2.10;;;25.70;30.30;;;;;;5003918;28;20127;-41
2022/01/22 13:10:44;;;;;;;3.78;2.05;;;25.70;30.30;;;;;;5004978;28;20030;-42
2022/01/22 13:13:14;;;;;;;3.67;2.10;;;25.70;30.30;;;;;;5020732;28;20026;-42
2022/01/22 13:15:40;;;;;;;3.40;1.90;;;25.70;30.30;;;;;;5025403;28;20030;-41
2022/01/22 13:18:06;;;;;;;3.40;2.15;;;25.70;30.30;;;;;;5025001;28;20025;-41
2022/01/22 13:20:34;;;;;;;3.13;1.77;;;25.70;30.20;;;;;;5024280;28;20055;-42
2022/01/22 13:23:11;;;;;;;3.38;1.60;;;25.70;30.20;;;;;;5024589;28;20091;-42
2022/01/22 13:25:38;;;;;;;2.83;1.70;;;25.70;30.20;;;;;;5025051;28;20044;-42
2022/01/22 13:28:10;;;;;;;2.80;1.42;;;25.70;30.10;;;;;;5023396;28;20071;-42
2022/01/22 13:30:42;;;;;;;3.25;1.75;;;25.70;30.20;;;;;;5024346;28;20390;-43
2022/01/22 13:33:20;;;;;;;2.83;1.57;;;25.70;30.20;;;;;;5023326;28;20034;-42
2022/01/22 13:36:11;;;;;;;4.38;1.88;;;25.70;30.10;;;;;;5005378;28;20159;-42
2022/01/22 13:49:34;;;;;;;2.92;1.50;;;25.80;31.10;;;;;;5023357;28;20028;-42
2022/01/22 13:52:06;;;;;;;3.15;1.40;;;25.80;31.00;;;;;;5023510;28;20053;-42
2022/01/22 13:54:44;;;;;;;4.13;1.48;;;25.80;30.90;;;;;;5023215;28;20478;-42
2022/01/22 13:57:12;;;;;;;2.70;1.60;;;25.80;30.90;;;;;;5023522;28;20504;-41
2022/01/22 13:59:43;;;;;;;2.95;1.42;;;25.80;30.90;;;;;;5025302;28;20617;-42
2022/01/22 14:04:49;;;;;;;3.10;1.15;;;25.80;30.80;;;;;;5027798;28;20036;-42
2022/01/22 14:07:31;;;;;;;3.13;1.60;;;25.80;30.80;;;;;;5027800;28;20581;-42
2022/01/22 14:09:56;;;;;;;3.08;1.65;;;25.80;30.80;;;;;;5026504;28;20060;-42
2022/01/22 14:12:24;;;;;;;3.22;1.50;;;25.80;30.70;;;;;;5025087;28;20029;-42
2022/01/22 14:14:58;;;;;;;2.78;1.60;;;25.80;30.70;;;;;;5027600;28;20029;-42
2022/01/22 14:17:29;;;;;;;2.10;1.10;;;25.80;30.70;;;;;;5027101;28;20108;-42
2022/01/22 14:20:10;;;;;;;2.45;1.30;;;25.80;30.80;;;;;;5027244;28;20144;-43
2022/01/22 14:22:59;;;;;;;3.38;1.25;;;25.80;30.70;;;;;;5024139;28;20613;-42
2022/01/22 14:25:25;;;;;;;2.95;1.48;;;25.80;30.70;;;;;;5023182;28;20025;-42
2022/01/22 14:28:04;;;;;;;1.83;0.93;;;25.80;30.80;;;;;;5025115;28;20124;-41
2022/01/22 14:30:32;;;;;;;1.98;1.05;;;25.80;31.50;;;;;;5024901;28;20397;-42
2022/01/22 14:32:58;;;;;;;2.78;1.25;;;25.80;31.00;;;;;;5026615;28;20075;-42
2022/01/22 14:35:24;;;;;;;2.63;1.25;;;25.80;30.90;;;;;;5026401;28;20025;-42
2022/01/22 14:37:53;;;;;;;2.60;1.45;;;25.80;30.90;;;;;;5026557;28;20026;-41
2022/01/22 14:45:57;;;;;;;2.67;1.23;;;25.70;30.80;;;;;;5025269;28;20027;-42
2022/01/22 14:48:23;;;;;;;2.15;1.20;;;25.70;30.80;;;;;;5021555;28;20108;-42
2022/01/22 14:50:49;;;;;;;2.28;1.00;;;25.70;30.80;;;;;;5021437;28;20536;-41
2022/01/22 14:53:15;;;;;;;2.05;0.93;;;25.60;30.90;;;;;;5027718;28;20029;-41
2022/01/22 14:55:52;;;;;;;1.80;0.93;;;25.60;30.80;;;;;;5025365;28;20561;-41
2022/01/22 14:58:17;;;;;;;2.45;1.20;;;25.60;30.80;;;;;;5025871;28;20040;-42
2022/01/22 15:00:43;;;;;;;2.13;1.10;;;25.60;30.80;;;;;;5026436;28;20041;-41